sensor_id;sensor_type;location;lat;lon;timestamp;P1;durP1;ratioP1;P2;durP2;ratioP2
19679;SDS011;9989;48.962;9.182;2023-08-20T00:00:52;15.83;;;10.03;;
19679;SDS011;9989;48.962;9.182;2023-08-20T00:03:18;14.43;;;10.67;;
19679;SDS011;9989;48.962;9.182;2023-08-20T00:05:44;15.30;;;10.40;;
19679;SDS011;9989;48.962;9.182;2023-08-20T00:08:09;15.33;;;10.77;;
19679;SDS011;9989;48.962;9.182;2023-08-20T00:10:35;14.77;;;10.80;;
19679;SDS011;9989;48.962;9.182;2023-08-20T00:13:01;13.20;;;10.03;;
19679;SDS011;9989;48.962;9.182;2023-08-20T00:15:26;17.37;;;10.50;;
19679;SDS011;9989;48.962;9.182;2023-08-20T00:17:53;14.67;;;10.00;;
19679;SDS011;9989;48.962;9.182;2023-08-20T00:20:20;13.53;;;10.03;;
19679;SDS011;9989;48.962;9.182;2023-08-20T00:22:47;15.17;;;10.70;;
19679;SDS011;9989;48.962;9.182;2023-08-20T00:25:14;14.07;;;10.73;;
19679;SDS011;9989;48.962;9.182;2023-08-20T00:27:41;16.33;;;10.87;;
19679;SDS011;9989;48.962;9.182;2023-08-20T00:30:07;15.23;;;10.43;;
19679;SDS011;9989;48.962;9.182;2023-08-20T00:32:34;15.23;;;10.90;;
19679;SDS011;9989;48.962;9.182;2023-08-20T00:35:01;16.13;;;10.40;;
19679;SDS011;9989;48.962;9.182;2023-08-20T00:37:28;14.67;;;10.37;;
19679;SDS011;9989;48.962;9.182;2023-08-20T00:39:54;14.83;;;10.80;;
19679;SDS011;9989;48.962;9.182;2023-08-20T00:42:19;14.93;;;10.27;;
19679;SDS011;9989;48.962;9.182;2023-08-20T00:44:45;15.73;;;11.33;;
19679;SDS011;9989;48.962;9.182;2023-08-20T00:47:12;14.70;;;11.50;;
19679;SDS011;9989;48.962;9.182;2023-08-20T00:49:39;14.07;;;10.40;;
19679;SDS011;9989;48.962;9.182;2023-08-20T00:52:06;14.03;;;10.40;;
19679;SDS011;9989;48.962;9.182;2023-08-20T00:54:34;18.27;;;10.87;;
19679;SDS011;9989;48.962;9.182;2023-08-20T00:57:00;16.13;;;11.67;;
19679;SDS011;9989;48.962;9.182;2023-08-20T00:59:27;14.90;;;11.40;;
19679;SDS011;9989;48.962;9.182;2023-08-20T01:01:54;16.87;;;10.93;;
19679;SDS011;9989;48.962;9.182;2023-08-20T01:04:20;16.20;;;10.83;;
19679;SDS011;9989;48.962;9.182;2023-08-20T01:07:03;19.57;;;11.13;;
19679;SDS011;9989;48.962;9.182;2023-08-20T01:12:24;16.87;;;12.10;;
19679;SDS011;9989;48.962;9.182;2023-08-20T01:14:50;15.63;;;11.57;;
19679;SDS011;9989;48.962;9.182;2023-08-20T01:17:16;16.63;;;11.57;;
19679;SDS011;9989;48.962;9.182;2023-08-20T01:19:41;16.13;;;11.03;;
19679;SDS011;9989;48.962;9.182;2023-08-20T01:30:55;17.50;;;11.83;;
19679;SDS011;9989;48.962;9.182;2023-08-20T01:33:22;14.57;;;10.43;;
19679;SDS011;9989;48.962;9.182;2023-08-20T01:35:52;13.27;;;10.27;;
19679;SDS011;9989;48.962;9.182;2023-08-20T01:38:18;14.50;;;10.90;;
19679;SDS011;9989;48.962;9.182;2023-08-20T01:40:44;15.33;;;10.23;;
19679;SDS011;9989;48.962;9.182;2023-08-20T01:43:10;15.40;;;11.13;;
19679;SDS011;9989;48.962;9.182;2023-08-20T01:45:35;16.53;;;11.77;;
19679;SDS011;9989;48.962;9.182;2023-08-20T01:48:01;17.23;;;10.90;;
19679;SDS011;9989;48.962;9.182;2023-08-20T01:50:28;16.47;;;11.10;;
19679;SDS011;9989;48.962;9.182;2023-08-20T01:52:54;16.07;;;11.60;;
19679;SDS011;9989;48.962;9.182;2023-08-20T01:55:20;15.43;;;11.27;;
19679;SDS011;9989;48.962;9.182;2023-08-20T01:57:46;15.90;;;11.40;;
19679;SDS011;9989;48.962;9.182;2023-08-20T02:00:12;14.77;;;10.90;;
19679;SDS011;9989;48.962;9.182;2023-08-20T02:02:38;15.60;;;10.63;;
19679;SDS011;9989;48.962;9.182;2023-08-20T02:05:03;16.30;;;11.20;;
19679;SDS011;9989;48.962;9.182;2023-08-20T02:07:29;14.00;;;10.40;;
19679;SDS011;9989;48.962;9.182;2023-08-20T02:09:55;16.73;;;11.90;;
19679;SDS011;9989;48.962;9.182;2023-08-20T02:12:20;17.57;;;10.87;;
19679;SDS011;9989;48.962;9.182;2023-08-20T02:14:46;13.43;;;9.47;;
19679;SDS011;9989;48.962;9.182;2023-08-20T02:17:12;15.83;;;10.37;;
19679;SDS011;9989;48.962;9.182;2023-08-20T02:19:38;15.77;;;11.07;;
19679;SDS011;9989;48.962;9.182;2023-08-20T02:22:03;17.67;;;11.33;;
19679;SDS011;9989;48.962;9.182;2023-08-20T02:24:29;16.30;;;11.50;;
19679;SDS011;9989;48.962;9.182;2023-08-20T02:26:55;14.90;;;11.10;;
19679;SDS011;9989;48.962;9.182;2023-08-20T02:29:21;14.90;;;11.50;;
19679;SDS011;9989;48.962;9.182;2023-08-20T02:31:47;15.57;;;9.93;;
19679;SDS011;9989;48.962;9.182;2023-08-20T02:34:13;15.73;;;11.53;;
19679;SDS011;9989;48.962;9.182;2023-08-20T02:36:38;17.37;;;12.17;;
19679;SDS011;9989;48.962;9.182;2023-08-20T02:39:04;16.30;;;12.23;;
19679;SDS011;9989;48.962;9.182;2023-08-20T02:41:32;17.60;;;11.63;;
19679;SDS011;9989;48.962;9.182;2023-08-20T02:43:59;22.87;;;11.60;;
19679;SDS011;9989;48.962;9.182;2023-08-20T02:46:24;14.93;;;11.40;;
19679;SDS011;9989;48.962;9.182;2023-08-20T02:48:50;15.67;;;11.23;;
19679;SDS011;9989;48.962;9.182;2023-08-20T02:51:16;19.17;;;12.73;;
19679;SDS011;9989;48.962;9.182;2023-08-20T02:53:41;16.97;;;11.17;;
19679;SDS011;9989;48.962;9.182;2023-08-20T02:56:07;19.37;;;12.33;;
19679;SDS011;9989;48.962;9.182;2023-08-20T02:58:32;13.93;;;10.80;;
19679;SDS011;9989;48.962;9.182;2023-08-20T03:00:58;16.07;;;12.00;;
19679;SDS011;9989;48.962;9.182;2023-08-20T03:03:24;16.70;;;12.07;;
19679;SDS011;9989;48.962;9.182;2023-08-20T03:05:50;15.23;;;10.83;;
19679;SDS011;9989;48.962;9.182;2023-08-20T03:08:15;17.53;;;12.13;;
19679;SDS011;9989;48.962;9.182;2023-08-20T03:10:41;14.90;;;10.37;;
19679;SDS011;9989;48.962;9.182;2023-08-20T03:13:06;14.43;;;10.43;;
19679;SDS011;9989;48.962;9.182;2023-08-20T03:15:32;16.50;;;11.20;;
19679;SDS011;9989;48.962;9.182;2023-08-20T03:17:58;15.97;;;11.00;;
19679;SDS011;9989;48.962;9.182;2023-08-20T03:20:23;14.27;;;10.37;;
19679;SDS011;9989;48.962;9.182;2023-08-20T03:22:49;14.97;;;11.07;;
19679;SDS011;9989;48.962;9.182;2023-08-20T03:25:14;15.50;;;11.60;;
19679;SDS011;9989;48.962;9.182;2023-08-20T03:27:41;17.23;;;11.00;;
19679;SDS011;9989;48.962;9.182;2023-08-20T03:30:07;14.33;;;11.33;;
19679;SDS011;9989;48.962;9.182;2023-08-20T03:32:33;16.00;;;11.10;;
19679;SDS011;9989;48.962;9.182;2023-08-20T03:34:58;17.17;;;10.70;;
19679;SDS011;9989;48.962;9.182;2023-08-20T03:37:24;15.40;;;10.70;;
19679;SDS011;9989;48.962;9.182;2023-08-20T03:39:51;15.83;;;11.43;;
19679;SDS011;9989;48.962;9.182;2023-08-20T03:42:17;17.07;;;11.40;;
19679;SDS011;9989;48.962;9.182;2023-08-20T03:44:43;16.10;;;12.33;;
19679;SDS011;9989;48.962;9.182;2023-08-20T03:47:08;18.17;;;12.10;;
19679;SDS011;9989;48.962;9.182;2023-08-20T03:49:34;14.40;;;11.30;;
19679;SDS011;9989;48.962;9.182;2023-08-20T03:52:00;14.67;;;10.63;;
19679;SDS011;9989;48.962;9.182;2023-08-20T03:54:27;13.93;;;10.17;;
19679;SDS011;9989;48.962;9.182;2023-08-20T03:56:54;15.87;;;12.40;;
19679;SDS011;9989;48.962;9.182;2023-08-20T03:59:20;15.90;;;11.70;;
19679;SDS011;9989;48.962;9.182;2023-08-20T04:01:45;14.97;;;11.27;;
19679;SDS011;9989;48.962;9.182;2023-08-20T04:04:11;15.83;;;10.63;;
19679;SDS011;9989;48.962;9.182;2023-08-20T04:06:36;15.67;;;11.93;;
19679;SDS011;9989;48.962;9.182;2023-08-20T04:09:02;13.47;;;10.70;;
19679;SDS011;9989;48.962;9.182;2023-08-20T04:11:28;15.77;;;11.37;;
19679;SDS011;9989;48.962;9.182;2023-08-20T04:13:54;16.43;;;11.80;;
19679;SDS011;9989;48.962;9.182;2023-08-20T04:16:19;15.50;;;11.90;;
19679;SDS011;9989;48.962;9.182;2023-08-20T04:18:45;14.10;;;10.67;;
19679;SDS011;9989;48.962;9.182;2023-08-20T04:21:11;16.60;;;12.00;;
19679;SDS011;9989;48.962;9.182;2023-08-20T04:23:36;16.57;;;11.40;;
19679;SDS011;9989;48.962;9.182;2023-08-20T04:26:02;18.90;;;11.60;;
19679;SDS011;9989;48.962;9.182;2023-08-20T04:28:27;16.43;;;12.00;;
19679;SDS011;9989;48.962;9.182;2023-08-20T04:30:53;16.50;;;11.73;;
19679;SDS011;9989;48.962;9.182;2023-08-20T04:33:19;15.23;;;10.87;;
19679;SDS011;9989;48.962;9.182;2023-08-20T04:35:46;19.80;;;11.97;;
19679;SDS011;9989;48.962;9.182;2023-08-20T04:38:13;14.77;;;11.50;;
19679;SDS011;9989;48.962;9.182;2023-08-20T04:40:38;15.07;;;10.63;;
19679;SDS011;9989;48.962;9.182;2023-08-20T04:43:04;16.33;;;11.03;;
19679;SDS011;9989;48.962;9.182;2023-08-20T04:45:30;14.17;;;10.73;;
19679;SDS011;9989;48.962;9.182;2023-08-20T04:47:55;14.20;;;11.73;;
19679;SDS011;9989;48.962;9.182;2023-08-20T04:50:21;15.33;;;10.57;;
19679;SDS011;9989;48.962;9.182;2023-08-20T04:52:46;17.20;;;11.37;;
19679;SDS011;9989;48.962;9.182;2023-08-20T04:55:12;14.97;;;10.97;;
19679;SDS011;9989;48.962;9.182;2023-08-20T04:57:38;14.43;;;11.77;;
19679;SDS011;9989;48.962;9.182;2023-08-20T05:00:03;15.93;;;11.40;;
19679;SDS011;9989;48.962;9.182;2023-08-20T05:02:30;16.83;;;11.40;;
19679;SDS011;9989;48.962;9.182;2023-08-20T05:04:56;20.03;;;11.37;;
19679;SDS011;9989;48.962;9.182;2023-08-20T05:07:21;15.53;;;11.30;;
19679;SDS011;9989;48.962;9.182;2023-08-20T05:09:47;19.37;;;12.87;;
19679;SDS011;9989;48.962;9.182;2023-08-20T05:12:12;17.30;;;11.57;;
19679;SDS011;9989;48.962;9.182;2023-08-20T05:14:38;16.77;;;12.00;;
19679;SDS011;9989;48.962;9.182;2023-08-20T05:17:04;16.57;;;12.43;;
19679;SDS011;9989;48.962;9.182;2023-08-20T05:19:29;15.87;;;12.03;;
19679;SDS011;9989;48.962;9.182;2023-08-20T05:21:55;16.10;;;11.63;;
19679;SDS011;9989;48.962;9.182;2023-08-20T05:24:23;15.60;;;11.73;;
19679;SDS011;9989;48.962;9.182;2023-08-20T05:27:03;16.83;;;12.13;;
19679;SDS011;9989;48.962;9.182;2023-08-20T05:29:29;17.77;;;12.83;;
19679;SDS011;9989;48.962;9.182;2023-08-20T05:31:55;19.83;;;12.90;;
19679;SDS011;9989;48.962;9.182;2023-08-20T05:34:20;15.87;;;11.80;;
19679;SDS011;9989;48.962;9.182;2023-08-20T05:36:46;19.30;;;11.40;;
19679;SDS011;9989;48.962;9.182;2023-08-20T05:39:11;15.33;;;11.70;;
19679;SDS011;9989;48.962;9.182;2023-08-20T05:41:37;16.37;;;11.60;;
19679;SDS011;9989;48.962;9.182;2023-08-20T05:44:03;17.50;;;11.73;;
19679;SDS011;9989;48.962;9.182;2023-08-20T05:46:29;13.20;;;10.63;;
19679;SDS011;9989;48.962;9.182;2023-08-20T05:48:54;14.87;;;10.90;;
19679;SDS011;9989;48.962;9.182;2023-08-20T05:51:20;17.93;;;11.73;;
19679;SDS011;9989;48.962;9.182;2023-08-20T05:53:45;17.23;;;11.53;;
19679;SDS011;9989;48.962;9.182;2023-08-20T05:56:11;16.33;;;12.33;;
19679;SDS011;9989;48.962;9.182;2023-08-20T05:58:36;16.60;;;12.87;;
19679;SDS011;9989;48.962;9.182;2023-08-20T06:01:02;17.37;;;12.37;;
19679;SDS011;9989;48.962;9.182;2023-08-20T06:03:28;15.20;;;11.83;;
19679;SDS011;9989;48.962;9.182;2023-08-20T06:05:53;15.60;;;10.83;;
19679;SDS011;9989;48.962;9.182;2023-08-20T06:08:21;14.97;;;11.23;;
19679;SDS011;9989;48.962;9.182;2023-08-20T06:10:47;16.40;;;11.97;;
19679;SDS011;9989;48.962;9.182;2023-08-20T06:13:12;17.33;;;12.10;;
19679;SDS011;9989;48.962;9.182;2023-08-20T06:15:38;16.27;;;11.83;;
19679;SDS011;9989;48.962;9.182;2023-08-20T06:18:03;16.97;;;12.53;;
19679;SDS011;9989;48.962;9.182;2023-08-20T06:20:29;17.90;;;13.13;;
19679;SDS011;9989;48.962;9.182;2023-08-20T06:22:55;17.97;;;12.87;;
19679;SDS011;9989;48.962;9.182;2023-08-20T06:25:20;14.90;;;11.37;;
19679;SDS011;9989;48.962;9.182;2023-08-20T06:27:46;14.73;;;11.60;;
19679;SDS011;9989;48.962;9.182;2023-08-20T06:30:12;15.03;;;11.93;;
19679;SDS011;9989;48.962;9.182;2023-08-20T06:32:38;18.03;;;12.43;;
19679;SDS011;9989;48.962;9.182;2023-08-20T06:35:03;16.63;;;12.17;;
19679;SDS011;9989;48.962;9.182;2023-08-20T06:37:29;16.37;;;11.63;;
19679;SDS011;9989;48.962;9.182;2023-08-20T06:39:55;17.67;;;12.43;;
19679;SDS011;9989;48.962;9.182;2023-08-20T06:42:20;15.87;;;11.33;;
19679;SDS011;9989;48.962;9.182;2023-08-20T06:44:46;15.37;;;12.43;;
19679;SDS011;9989;48.962;9.182;2023-08-20T06:47:12;15.90;;;11.63;;
19679;SDS011;9989;48.962;9.182;2023-08-20T06:49:39;14.90;;;11.43;;
19679;SDS011;9989;48.962;9.182;2023-08-20T06:52:05;17.70;;;12.23;;
19679;SDS011;9989;48.962;9.182;2023-08-20T06:54:31;15.83;;;12.30;;
19679;SDS011;9989;48.962;9.182;2023-08-20T06:56:56;16.47;;;12.07;;
19679;SDS011;9989;48.962;9.182;2023-08-20T06:59:22;17.17;;;12.47;;
19679;SDS011;9989;48.962;9.182;2023-08-20T07:01:48;16.00;;;11.40;;
19679;SDS011;9989;48.962;9.182;2023-08-20T07:04:14;17.37;;;12.90;;
19679;SDS011;9989;48.962;9.182;2023-08-20T07:06:39;17.73;;;13.27;;
19679;SDS011;9989;48.962;9.182;2023-08-20T07:09:05;20.33;;;15.20;;
19679;SDS011;9989;48.962;9.182;2023-08-20T07:11:31;20.17;;;14.23;;
19679;SDS011;9989;48.962;9.182;2023-08-20T07:13:56;16.37;;;12.47;;
19679;SDS011;9989;48.962;9.182;2023-08-20T07:16:22;22.57;;;13.90;;
19679;SDS011;9989;48.962;9.182;2023-08-20T07:18:47;18.20;;;13.60;;
19679;SDS011;9989;48.962;9.182;2023-08-20T07:21:13;17.80;;;12.47;;
19679;SDS011;9989;48.962;9.182;2023-08-20T07:23:39;16.77;;;12.63;;
19679;SDS011;9989;48.962;9.182;2023-08-20T07:26:08;21.10;;;15.50;;
19679;SDS011;9989;48.962;9.182;2023-08-20T07:28:35;17.57;;;13.00;;
19679;SDS011;9989;48.962;9.182;2023-08-20T07:31:19;18.40;;;12.87;;
19679;SDS011;9989;48.962;9.182;2023-08-20T07:33:49;15.43;;;12.03;;
19679;SDS011;9989;48.962;9.182;2023-08-20T07:36:15;16.80;;;12.73;;
19679;SDS011;9989;48.962;9.182;2023-08-20T07:38:42;16.63;;;11.87;;
19679;SDS011;9989;48.962;9.182;2023-08-20T07:41:09;15.63;;;11.63;;
19679;SDS011;9989;48.962;9.182;2023-08-20T07:43:37;17.67;;;13.07;;
19679;SDS011;9989;48.962;9.182;2023-08-20T07:46:03;16.10;;;12.40;;
19679;SDS011;9989;48.962;9.182;2023-08-20T07:48:29;20.67;;;13.63;;
19679;SDS011;9989;48.962;9.182;2023-08-20T07:50:55;14.47;;;11.73;;
19679;SDS011;9989;48.962;9.182;2023-08-20T07:53:21;18.07;;;13.67;;
19679;SDS011;9989;48.962;9.182;2023-08-20T07:55:46;17.80;;;12.47;;
19679;SDS011;9989;48.962;9.182;2023-08-20T07:58:12;17.90;;;12.20;;
19679;SDS011;9989;48.962;9.182;2023-08-20T08:00:38;14.27;;;11.27;;
19679;SDS011;9989;48.962;9.182;2023-08-20T08:03:03;17.47;;;12.50;;
19679;SDS011;9989;48.962;9.182;2023-08-20T08:05:29;17.87;;;12.43;;
19679;SDS011;9989;48.962;9.182;2023-08-20T08:07:55;16.30;;;11.77;;
19679;SDS011;9989;48.962;9.182;2023-08-20T08:10:20;14.53;;;10.87;;
19679;SDS011;9989;48.962;9.182;2023-08-20T08:12:46;19.87;;;13.07;;
19679;SDS011;9989;48.962;9.182;2023-08-20T08:15:12;17.87;;;13.67;;
19679;SDS011;9989;48.962;9.182;2023-08-20T08:17:38;17.43;;;11.87;;
19679;SDS011;9989;48.962;9.182;2023-08-20T08:20:04;15.20;;;10.87;;
19679;SDS011;9989;48.962;9.182;2023-08-20T08:22:31;18.77;;;13.70;;
19679;SDS011;9989;48.962;9.182;2023-08-20T08:24:56;18.03;;;12.30;;
19679;SDS011;9989;48.962;9.182;2023-08-20T08:27:22;17.33;;;12.20;;
19679;SDS011;9989;48.962;9.182;2023-08-20T08:29:48;16.63;;;13.67;;
19679;SDS011;9989;48.962;9.182;2023-08-20T08:32:13;18.17;;;12.73;;
19679;SDS011;9989;48.962;9.182;2023-08-20T08:34:39;19.53;;;14.57;;
19679;SDS011;9989;48.962;9.182;2023-08-20T08:37:05;19.63;;;13.23;;
19679;SDS011;9989;48.962;9.182;2023-08-20T08:39:30;20.17;;;13.13;;
19679;SDS011;9989;48.962;9.182;2023-08-20T08:41:59;15.13;;;12.20;;
19679;SDS011;9989;48.962;9.182;2023-08-20T08:44:33;27.10;;;16.13;;
19679;SDS011;9989;48.962;9.182;2023-08-20T08:46:59;19.40;;;13.30;;
19679;SDS011;9989;48.962;9.182;2023-08-20T08:49:26;18.47;;;12.73;;
19679;SDS011;9989;48.962;9.182;2023-08-20T08:51:53;18.27;;;14.73;;
19679;SDS011;9989;48.962;9.182;2023-08-20T08:54:21;18.10;;;13.80;;
19679;SDS011;9989;48.962;9.182;2023-08-20T08:56:47;23.53;;;16.27;;
19679;SDS011;9989;48.962;9.182;2023-08-20T08:59:13;16.20;;;12.67;;
19679;SDS011;9989;48.962;9.182;2023-08-20T09:01:39;15.63;;;12.20;;
19679;SDS011;9989;48.962;9.182;2023-08-20T09:04:06;20.87;;;13.80;;
19679;SDS011;9989;48.962;9.182;2023-08-20T09:06:48;16.17;;;12.57;;
19679;SDS011;9989;48.962;9.182;2023-08-20T09:09:19;16.03;;;12.63;;
19679;SDS011;9989;48.962;9.182;2023-08-20T09:11:48;15.00;;;11.03;;
19679;SDS011;9989;48.962;9.182;2023-08-20T09:14:20;17.03;;;11.90;;
19679;SDS011;9989;48.962;9.182;2023-08-20T09:16:48;16.80;;;12.97;;
19679;SDS011;9989;48.962;9.182;2023-08-20T09:19:20;19.43;;;14.07;;
19679;SDS011;9989;48.962;9.182;2023-08-20T09:21:46;15.73;;;12.80;;
19679;SDS011;9989;48.962;9.182;2023-08-20T09:24:14;16.47;;;12.03;;
19679;SDS011;9989;48.962;9.182;2023-08-20T09:26:44;18.97;;;14.47;;
19679;SDS011;9989;48.962;9.182;2023-08-20T09:29:10;15.47;;;13.17;;
19679;SDS011;9989;48.962;9.182;2023-08-20T09:31:37;16.17;;;12.07;;
19679;SDS011;9989;48.962;9.182;2023-08-20T09:34:03;18.23;;;12.10;;
19679;SDS011;9989;48.962;9.182;2023-08-20T09:36:30;14.37;;;11.30;;
19679;SDS011;9989;48.962;9.182;2023-08-20T09:38:57;17.93;;;11.77;;
19679;SDS011;9989;48.962;9.182;2023-08-20T09:41:23;14.83;;;11.97;;
19679;SDS011;9989;48.962;9.182;2023-08-20T09:43:48;17.27;;;11.77;;
19679;SDS011;9989;48.962;9.182;2023-08-20T09:46:23;13.40;;;10.70;;
19679;SDS011;9989;48.962;9.182;2023-08-20T09:48:51;17.47;;;12.87;;
19679;SDS011;9989;48.962;9.182;2023-08-20T09:51:19;16.17;;;12.37;;
19679;SDS011;9989;48.962;9.182;2023-08-20T09:56:38;15.03;;;11.57;;
19679;SDS011;9989;48.962;9.182;2023-08-20T09:59:04;12.90;;;10.60;;
19679;SDS011;9989;48.962;9.182;2023-08-20T10:01:31;15.80;;;10.67;;
19679;SDS011;9989;48.962;9.182;2023-08-20T10:03:58;14.93;;;10.63;;
19679;SDS011;9989;48.962;9.182;2023-08-20T10:06:24;13.17;;;10.10;;
19679;SDS011;9989;48.962;9.182;2023-08-20T10:08:51;14.80;;;11.00;;
19679;SDS011;9989;48.962;9.182;2023-08-20T10:11:18;14.30;;;10.60;;
19679;SDS011;9989;48.962;9.182;2023-08-20T10:13:44;14.60;;;11.50;;
19679;SDS011;9989;48.962;9.182;2023-08-20T10:16:12;18.53;;;12.27;;
19679;SDS011;9989;48.962;9.182;2023-08-20T10:18:39;15.20;;;11.37;;
19679;SDS011;9989;48.962;9.182;2023-08-20T10:21:05;15.60;;;11.77;;
19679;SDS011;9989;48.962;9.182;2023-08-20T10:23:34;17.00;;;11.97;;
19679;SDS011;9989;48.962;9.182;2023-08-20T10:26:06;15.13;;;11.60;;
19679;SDS011;9989;48.962;9.182;2023-08-20T10:28:39;15.73;;;11.73;;
19679;SDS011;9989;48.962;9.182;2023-08-20T10:31:12;13.80;;;10.90;;
19679;SDS011;9989;48.962;9.182;2023-08-20T10:36:15;14.03;;;11.23;;
19679;SDS011;9989;48.962;9.182;2023-08-20T10:38:54;15.43;;;10.87;;
19679;SDS011;9989;48.962;9.182;2023-08-20T10:41:25;14.20;;;10.60;;
19679;SDS011;9989;48.962;9.182;2023-08-20T10:43:58;13.60;;;10.20;;
19679;SDS011;9989;48.962;9.182;2023-08-20T10:46:28;14.63;;;11.20;;
19679;SDS011;9989;48.962;9.182;2023-08-20T10:49:04;14.17;;;10.90;;
19679;SDS011;9989;48.962;9.182;2023-08-20T10:51:37;14.73;;;10.73;;
19679;SDS011;9989;48.962;9.182;2023-08-20T10:54:08;15.20;;;10.70;;
19679;SDS011;9989;48.962;9.182;2023-08-20T10:56:40;13.73;;;10.37;;
19679;SDS011;9989;48.962;9.182;2023-08-20T10:59:14;14.20;;;10.93;;
19679;SDS011;9989;48.962;9.182;2023-08-20T11:01:51;14.10;;;10.50;;
19679;SDS011;9989;48.962;9.182;2023-08-20T11:04:28;14.23;;;10.03;;
19679;SDS011;9989;48.962;9.182;2023-08-20T11:06:58;15.47;;;10.87;;
19679;SDS011;9989;48.962;9.182;2023-08-20T11:09:26;13.53;;;10.20;;
19679;SDS011;9989;48.962;9.182;2023-08-20T11:11:54;12.80;;;10.60;;
19679;SDS011;9989;48.962;9.182;2023-08-20T11:14:21;14.27;;;10.13;;
19679;SDS011;9989;48.962;9.182;2023-08-20T11:16:48;15.03;;;10.57;;
19679;SDS011;9989;48.962;9.182;2023-08-20T11:19:14;13.40;;;10.30;;
19679;SDS011;9989;48.962;9.182;2023-08-20T11:21:43;13.03;;;9.17;;
19679;SDS011;9989;48.962;9.182;2023-08-20T11:24:10;13.93;;;10.23;;
19679;SDS011;9989;48.962;9.182;2023-08-20T11:26:41;13.10;;;10.17;;
19679;SDS011;9989;48.962;9.182;2023-08-20T11:29:09;14.83;;;10.13;;
19679;SDS011;9989;48.962;9.182;2023-08-20T11:31:37;13.70;;;9.53;;
19679;SDS011;9989;48.962;9.182;2023-08-20T11:34:04;16.10;;;10.13;;
19679;SDS011;9989;48.962;9.182;2023-08-20T11:36:30;12.43;;;9.83;;
19679;SDS011;9989;48.962;9.182;2023-08-20T11:38:57;12.70;;;9.80;;
19679;SDS011;9989;48.962;9.182;2023-08-20T11:41:23;12.67;;;9.67;;
19679;SDS011;9989;48.962;9.182;2023-08-20T11:43:50;12.50;;;9.30;;
19679;SDS011;9989;48.962;9.182;2023-08-20T11:46:20;15.23;;;10.10;;
19679;SDS011;9989;48.962;9.182;2023-08-20T11:49:03;13.03;;;9.77;;
19679;SDS011;9989;48.962;9.182;2023-08-20T11:51:37;14.07;;;10.73;;
19679;SDS011;9989;48.962;9.182;2023-08-20T11:54:05;14.17;;;10.43;;
19679;SDS011;9989;48.962;9.182;2023-08-20T11:56:33;13.13;;;10.23;;
19679;SDS011;9989;48.962;9.182;2023-08-20T11:59:00;14.87;;;9.80;;
19679;SDS011;9989;48.962;9.182;2023-08-20T12:01:33;12.63;;;9.57;;
19679;SDS011;9989;48.962;9.182;2023-08-20T12:04:05;12.93;;;9.77;;
19679;SDS011;9989;48.962;9.182;2023-08-20T12:06:32;13.10;;;9.20;;
19679;SDS011;9989;48.962;9.182;2023-08-20T12:08:59;14.33;;;8.80;;
19679;SDS011;9989;48.962;9.182;2023-08-20T12:11:26;12.77;;;8.97;;
19679;SDS011;9989;48.962;9.182;2023-08-20T12:13:53;13.43;;;9.70;;
19679;SDS011;9989;48.962;9.182;2023-08-20T12:16:21;12.80;;;10.37;;
19679;SDS011;9989;48.962;9.182;2023-08-20T12:18:48;12.63;;;9.27;;
19679;SDS011;9989;48.962;9.182;2023-08-20T12:21:14;11.20;;;8.67;;
19679;SDS011;9989;48.962;9.182;2023-08-20T12:23:40;11.27;;;8.10;;
19679;SDS011;9989;48.962;9.182;2023-08-20T12:26:06;12.40;;;9.30;;
19679;SDS011;9989;48.962;9.182;2023-08-20T12:28:35;11.63;;;8.53;;
19679;SDS011;9989;48.962;9.182;2023-08-20T12:31:00;11.70;;;8.53;;
19679;SDS011;9989;48.962;9.182;2023-08-20T12:33:26;11.40;;;7.80;;
19679;SDS011;9989;48.962;9.182;2023-08-20T12:35:53;11.17;;;7.87;;
19679;SDS011;9989;48.962;9.182;2023-08-20T12:38:20;10.20;;;7.63;;
19679;SDS011;9989;48.962;9.182;2023-08-20T12:40:46;13.80;;;8.60;;
19679;SDS011;9989;48.962;9.182;2023-08-20T12:43:11;11.17;;;8.70;;
19679;SDS011;9989;48.962;9.182;2023-08-20T12:45:37;12.37;;;8.87;;
19679;SDS011;9989;48.962;9.182;2023-08-20T12:48:04;13.27;;;8.80;;
19679;SDS011;9989;48.962;9.182;2023-08-20T12:50:30;12.03;;;8.07;;
19679;SDS011;9989;48.962;9.182;2023-08-20T12:52:56;10.47;;;7.30;;
19679;SDS011;9989;48.962;9.182;2023-08-20T12:55:21;12.67;;;8.43;;
19679;SDS011;9989;48.962;9.182;2023-08-20T12:57:52;14.43;;;8.33;;
19679;SDS011;9989;48.962;9.182;2023-08-20T13:00:22;10.90;;;8.00;;
19679;SDS011;9989;48.962;9.182;2023-08-20T13:02:50;10.23;;;7.57;;
19679;SDS011;9989;48.962;9.182;2023-08-20T13:05:16;14.57;;;8.30;;
19679;SDS011;9989;48.962;9.182;2023-08-20T13:07:43;11.30;;;7.93;;
19679;SDS011;9989;48.962;9.182;2023-08-20T13:10:09;12.80;;;8.13;;
19679;SDS011;9989;48.962;9.182;2023-08-20T13:12:35;10.93;;;7.30;;
19679;SDS011;9989;48.962;9.182;2023-08-20T13:15:02;11.90;;;7.83;;
19679;SDS011;9989;48.962;9.182;2023-08-20T13:17:29;11.30;;;7.83;;
19679;SDS011;9989;48.962;9.182;2023-08-20T13:19:55;14.47;;;8.20;;
19679;SDS011;9989;48.962;9.182;2023-08-20T13:22:21;12.57;;;8.13;;
19679;SDS011;9989;48.962;9.182;2023-08-20T13:24:47;14.73;;;7.87;;
19679;SDS011;9989;48.962;9.182;2023-08-20T13:27:12;11.53;;;8.07;;
19679;SDS011;9989;48.962;9.182;2023-08-20T13:29:40;10.97;;;7.83;;
19679;SDS011;9989;48.962;9.182;2023-08-20T13:32:05;11.83;;;7.90;;
19679;SDS011;9989;48.962;9.182;2023-08-20T13:34:31;11.53;;;7.13;;
19679;SDS011;9989;48.962;9.182;2023-08-20T13:36:57;10.30;;;7.20;;
19679;SDS011;9989;48.962;9.182;2023-08-20T13:39:23;12.17;;;7.40;;
19679;SDS011;9989;48.962;9.182;2023-08-20T13:41:50;9.77;;;6.77;;
19679;SDS011;9989;48.962;9.182;2023-08-20T13:44:16;10.27;;;7.00;;
19679;SDS011;9989;48.962;9.182;2023-08-20T13:46:42;10.43;;;7.27;;
19679;SDS011;9989;48.962;9.182;2023-08-20T13:49:07;13.17;;;7.23;;
19679;SDS011;9989;48.962;9.182;2023-08-20T13:51:33;11.10;;;6.60;;
19679;SDS011;9989;48.962;9.182;2023-08-20T13:53:59;11.47;;;6.70;;
19679;SDS011;9989;48.962;9.182;2023-08-20T13:56:25;10.87;;;6.37;;
19679;SDS011;9989;48.962;9.182;2023-08-20T13:58:51;11.03;;;6.87;;
19679;SDS011;9989;48.962;9.182;2023-08-20T14:01:17;11.37;;;6.90;;
19679;SDS011;9989;48.962;9.182;2023-08-20T14:03:43;10.93;;;6.37;;
19679;SDS011;9989;48.962;9.182;2023-08-20T14:06:09;9.10;;;5.50;;
19679;SDS011;9989;48.962;9.182;2023-08-20T14:08:34;8.77;;;6.00;;
19679;SDS011;9989;48.962;9.182;2023-08-20T14:11:00;9.03;;;6.30;;
19679;SDS011;9989;48.962;9.182;2023-08-20T14:13:26;9.50;;;5.63;;
19679;SDS011;9989;48.962;9.182;2023-08-20T14:15:51;11.93;;;6.50;;
19679;SDS011;9989;48.962;9.182;2023-08-20T14:18:17;13.80;;;6.53;;
19679;SDS011;9989;48.962;9.182;2023-08-20T14:20:43;10.30;;;5.50;;
19679;SDS011;9989;48.962;9.182;2023-08-20T14:23:08;12.37;;;5.50;;
19679;SDS011;9989;48.962;9.182;2023-08-20T14:25:34;10.50;;;6.00;;
19679;SDS011;9989;48.962;9.182;2023-08-20T14:27:59;8.43;;;5.43;;
19679;SDS011;9989;48.962;9.182;2023-08-20T14:30:25;10.97;;;5.87;;
19679;SDS011;9989;48.962;9.182;2023-08-20T14:32:52;9.83;;;6.90;;
19679;SDS011;9989;48.962;9.182;2023-08-20T14:35:19;12.93;;;7.53;;
19679;SDS011;9989;48.962;9.182;2023-08-20T14:37:44;10.60;;;6.33;;
19679;SDS011;9989;48.962;9.182;2023-08-20T14:40:10;13.63;;;6.93;;
19679;SDS011;9989;48.962;9.182;2023-08-20T14:42:36;11.33;;;7.03;;
19679;SDS011;9989;48.962;9.182;2023-08-20T14:45:03;9.20;;;6.70;;
19679;SDS011;9989;48.962;9.182;2023-08-20T14:47:29;9.47;;;6.53;;
19679;SDS011;9989;48.962;9.182;2023-08-20T14:49:56;11.03;;;7.20;;
19679;SDS011;9989;48.962;9.182;2023-08-20T14:52:22;10.03;;;6.63;;